createdAt,value
2019-02-25T00:01:46.152Z,16.50
2019-02-25T00:04:51.008Z,17.10
2019-02-25T00:07:55.815Z,17.93
2019-02-25T00:11:00.671Z,18.07
2019-02-25T00:14:05.500Z,19.23
2019-02-25T00:17:10.370Z,24.77
2019-02-25T00:20:15.223Z,18.10
2019-02-25T00:23:20.059Z,17.60
2019-02-25T00:26:24.884Z,18.37
2019-02-25T00:29:29.730Z,17.33
2019-02-25T00:32:34.583Z,17.17
2019-02-25T00:35:39.439Z,15.90
2019-02-25T00:38:44.362Z,16.23
2019-02-25T00:41:49.253Z,19.97
2019-02-25T00:44:54.074Z,16.43
2019-02-25T00:47:58.896Z,15.97
2019-02-25T00:51:03.755Z,17.27
2019-02-25T00:54:08.596Z,19.53
2019-02-25T00:57:13.498Z,17.67
2019-02-25T01:00:20.010Z,17.83
2019-02-25T01:03:24.898Z,22.37
2019-02-25T01:06:29.823Z,17.17
2019-02-25T01:09:35.599Z,14.87
2019-02-25T01:12:42.259Z,16.83
2019-02-25T01:15:47.119Z,15.67
2019-02-25T01:18:51.983Z,15.63
2019-02-25T01:21:57.880Z,14.87
2019-02-25T01:25:02.886Z,19.63
2019-02-25T01:28:07.738Z,16.67
2019-02-25T01:31:12.576Z,20.33
2019-02-25T01:34:17.389Z,16.53
2019-02-25T01:37:22.328Z,16.43
2019-02-25T01:40:27.223Z,13.93
2019-02-25T01:43:32.050Z,18.90
2019-02-25T01:46:36.938Z,16.53
2019-02-25T01:49:41.794Z,15.50
2019-02-25T01:52:46.606Z,14.13
2019-02-25T01:55:51.463Z,18.03
2019-02-25T01:58:56.371Z,14.33
2019-02-25T02:02:01.250Z,15.23
2019-02-25T02:05:06.422Z,15.33
2019-02-25T02:08:12.004Z,16.52
2019-02-25T02:11:16.868Z,18.73
2019-02-25T02:14:21.718Z,16.20
2019-02-25T02:17:26.546Z,14.17
2019-02-25T02:20:31.401Z,17.30
2019-02-25T02:23:36.242Z,15.83
2019-02-25T02:26:41.094Z,20.57
2019-02-25T02:29:46.002Z,18.87
2019-02-25T02:32:50.825Z,16.07
2019-02-25T02:35:56.058Z,16.37
2019-02-25T02:39:00.976Z,13.57
2019-02-25T02:42:17.916Z,17.83
2019-02-25T02:45:34.905Z,14.80
2019-02-25T02:48:42.839Z,15.70
2019-02-25T02:51:47.735Z,13.17
2019-02-25T02:54:53.641Z,15.37
2019-02-25T02:57:58.485Z,17.47
2019-02-25T03:01:03.359Z,14.53
2019-02-25T03:04:08.239Z,15.10
2019-02-25T03:07:13.156Z,13.87
2019-02-25T03:10:19.256Z,15.67
2019-02-25T03:13:24.158Z,14.43
2019-02-25T03:16:29.139Z,12.18
2019-02-25T03:19:33.962Z,16.30
2019-02-25T03:22:38.791Z,14.07
2019-02-25T03:25:43.609Z,13.33
2019-02-25T03:28:48.483Z,14.23
2019-02-25T03:31:53.367Z,12.90
2019-02-25T03:34:58.210Z,14.35
2019-02-25T03:38:03.063Z,11.23
2019-02-25T03:41:07.895Z,14.57
2019-02-25T03:44:12.750Z,18.47
2019-02-25T03:47:17.609Z,13.97
2019-02-25T03:50:22.534Z,15.50
2019-02-25T03:53:27.434Z,13.80
2019-02-25T03:56:33.290Z,13.47
2019-02-25T03:59:38.119Z,16.23
2019-02-25T04:02:43.278Z,14.73
2019-02-25T04:05:48.302Z,16.47
2019-02-25T04:08:53.129Z,20.43
2019-02-25T04:11:57.979Z,13.43
2019-02-25T04:15:03.312Z,15.70
2019-02-25T04:18:08.156Z,17.17
2019-02-25T04:21:12.970Z,16.30
2019-02-25T04:24:17.795Z,17.87
2019-02-25T04:27:22.618Z,16.43
2019-02-25T04:30:27.488Z,13.57
2019-02-25T04:33:32.374Z,15.97
2019-02-25T04:36:37.237Z,17.97
2019-02-25T04:39:42.098Z,16.43
2019-02-25T04:42:46.910Z,14.50
2019-02-25T04:45:51.740Z,15.37
2019-02-25T04:48:56.554Z,15.77
2019-02-25T04:52:02.336Z,14.63
2019-02-25T04:55:09.185Z,17.13
2019-02-25T04:58:14.983Z,13.93
2019-02-25T05:01:19.912Z,13.22
2019-02-25T05:04:24.722Z,12.37
2019-02-25T05:07:30.555Z,17.17
2019-02-25T05:10:35.484Z,15.60
2019-02-25T05:13:40.887Z,14.23
2019-02-25T05:16:46.715Z,15.43
2019-02-25T05:19:51.579Z,16.77
2019-02-25T05:22:56.438Z,15.30
2019-02-25T05:26:01.280Z,16.60
2019-02-25T05:29:06.109Z,14.80
2019-02-25T05:32:11.059Z,14.90
2019-02-25T05:35:16.031Z,14.67
2019-02-25T05:38:20.998Z,13.83
2019-02-25T05:41:25.811Z,15.17
2019-02-25T05:44:30.643Z,17.77
2019-02-25T05:47:35.495Z,15.87
2019-02-25T05:50:41.163Z,15.40
2019-02-25T05:53:46.019Z,15.10
2019-02-25T05:56:50.861Z,20.63
2019-02-25T05:59:55.694Z,13.40
2019-02-25T06:03:00.506Z,21.25
2019-02-25T06:06:05.333Z,18.10
2019-02-25T06:09:10.175Z,16.90
2019-02-25T06:12:14.997Z,15.67
2019-02-25T06:15:20.622Z,14.37
2019-02-25T06:18:25.490Z,14.83
2019-02-25T06:21:30.368Z,18.07
2019-02-25T06:24:35.239Z,16.53
2019-02-25T06:27:40.057Z,16.83
2019-02-25T06:30:44.890Z,18.63
2019-02-25T06:33:49.699Z,16.80
2019-02-25T06:36:54.567Z,18.27
2019-02-25T06:39:59.374Z,23.97
2019-02-25T06:43:04.446Z,16.10
2019-02-25T06:46:09.273Z,21.63
2019-02-25T06:49:14.086Z,16.77
2019-02-25T06:52:20.080Z,22.23
2019-02-25T06:55:26.187Z,19.80
2019-02-25T06:58:31.013Z,19.17
2019-02-25T07:01:35.877Z,17.83
2019-02-25T07:04:49.130Z,19.47
2019-02-25T07:08:13.619Z,19.23
2019-02-25T07:11:20.110Z,28.90
2019-02-25T07:14:35.467Z,21.80
2019-02-25T07:17:56.954Z,28.13
2019-02-25T07:21:03.416Z,25.23
2019-02-25T07:24:18.882Z,22.03
2019-02-25T07:27:41.951Z,27.83
2019-02-25T07:30:54.398Z,20.23
2019-02-25T07:34:00.892Z,26.70
2019-02-25T07:37:07.390Z,24.97
2019-02-25T07:40:16.282Z,29.63
2019-02-25T07:43:25.431Z,25.73
2019-02-25T07:46:31.895Z,21.07
2019-02-25T07:49:38.401Z,26.13
2019-02-25T07:52:57.104Z,25.87
2019-02-25T07:56:06.518Z,20.70
2019-02-25T07:59:25.066Z,23.80
2019-02-25T08:02:31.559Z,19.67
2019-02-25T08:05:38.018Z,24.53
2019-02-25T08:08:44.512Z,21.60
2019-02-25T08:11:50.994Z,27.80
2019-02-25T08:14:57.534Z,26.03
2019-02-25T08:18:16.080Z,21.77
2019-02-25T08:21:25.457Z,26.07
2019-02-25T08:24:38.058Z,26.77
2019-02-25T08:28:02.962Z,22.60
2019-02-25T08:31:09.450Z,26.20
2019-02-25T08:34:18.711Z,24.17
2019-02-25T08:37:45.348Z,27.33
2019-02-25T08:41:02.062Z,28.87
2019-02-25T08:44:17.711Z,23.73
2019-02-25T08:47:24.162Z,28.40
2019-02-25T08:50:29.021Z,25.48
2019-02-25T08:53:33.882Z,28.77
2019-02-25T08:56:38.803Z,26.77
2019-02-25T08:59:43.650Z,27.93
2019-02-25T09:02:48.550Z,27.87
2019-02-25T09:05:53.369Z,27.80
2019-02-25T09:08:58.473Z,25.30
2019-02-25T09:12:03.303Z,30.87
2019-02-25T09:15:11.476Z,27.97
2019-02-25T09:18:16.315Z,25.90
2019-02-25T09:21:21.148Z,27.90
2019-02-25T09:24:25.990Z,28.17
2019-02-25T09:27:30.819Z,29.23
2019-02-25T09:30:35.666Z,32.70
2019-02-25T09:33:40.510Z,30.20
2019-02-25T09:36:45.362Z,28.70
2019-02-25T09:39:52.016Z,29.90
2019-02-25T09:42:56.945Z,36.40
2019-02-25T09:46:01.792Z,34.90
2019-02-25T09:49:06.640Z,41.85
2019-02-25T09:52:11.498Z,39.45
2019-02-25T09:55:16.313Z,41.80
2019-02-25T09:58:21.266Z,43.73
2019-02-25T10:01:26.110Z,39.27
2019-02-25T10:04:30.980Z,36.23
2019-02-25T10:07:35.919Z,42.17
2019-02-25T10:10:40.738Z,37.57
2019-02-25T10:13:45.584Z,40.67
2019-02-25T10:16:50.409Z,38.57
2019-02-25T10:19:55.270Z,38.37
2019-02-25T10:23:00.133Z,42.37
2019-02-25T10:26:05.457Z,37.80
2019-02-25T10:29:10.399Z,40.13
2019-02-25T10:32:15.217Z,41.87
2019-02-25T10:35:27.638Z,41.60
2019-02-25T10:38:32.491Z,40.53
2019-02-25T10:41:37.320Z,43.50
2019-02-25T10:44:42.249Z,41.37
2019-02-25T10:47:49.458Z,43.27
2019-02-25T10:50:56.220Z,43.47
2019-02-25T10:54:00.647Z,47.50
2019-02-25T10:57:05.935Z,33.33
2019-02-25T11:00:16.427Z,40.60
2019-02-25T11:03:21.726Z,39.83
2019-02-25T11:06:27.383Z,38.70
2019-02-25T11:09:34.906Z,40.73
2019-02-25T11:12:40.509Z,43.83
2019-02-25T11:15:46.669Z,40.25
2019-02-25T11:18:52.760Z,36.10
2019-02-25T11:21:58.615Z,37.87
2019-02-25T11:25:04.670Z,36.68
2019-02-25T11:28:22.657Z,40.37
2019-02-25T11:31:21.707Z,38.17
2019-02-25T11:34:24.514Z,34.10
2019-02-25T11:37:29.337Z,34.30
2019-02-25T11:40:36.067Z,35.53
2019-02-25T11:43:40.755Z,36.10
2019-02-25T11:46:45.629Z,32.57
2019-02-25T11:49:50.934Z,44.43
2019-02-25T11:52:56.101Z,35.87
2019-02-25T11:56:00.925Z,38.43
2019-02-25T11:59:05.758Z,39.83
2019-02-25T12:02:10.683Z,38.07
2019-02-25T12:05:17.128Z,36.27
2019-02-25T12:08:21.995Z,37.67
2019-02-25T12:11:27.630Z,33.98
2019-02-25T12:14:32.469Z,36.33
2019-02-25T12:17:37.320Z,40.80
2019-02-25T12:20:42.150Z,36.53
2019-02-25T12:23:47.006Z,34.53
2019-02-25T12:26:51.867Z,40.07
2019-02-25T12:29:56.731Z,42.10
2019-02-25T12:33:01.626Z,41.80
2019-02-25T12:36:06.489Z,34.13
2019-02-25T12:39:11.577Z,34.30
2019-02-25T12:42:16.434Z,36.70
2019-02-25T12:45:21.373Z,33.70
2019-02-25T12:48:26.242Z,38.57
2019-02-25T12:51:31.132Z,42.33
2019-02-25T12:54:35.961Z,36.50
2019-02-25T12:57:40.828Z,35.30
2019-02-25T13:00:46.183Z,36.03
2019-02-25T13:03:51.099Z,33.17
2019-02-25T13:06:55.962Z,35.40
2019-02-25T13:10:00.850Z,38.30
2019-02-25T13:13:07.374Z,35.20
2019-02-25T13:16:12.283Z,36.73
2019-02-25T13:19:17.126Z,36.03
2019-02-25T13:22:21.974Z,33.27
2019-02-25T13:25:29.806Z,34.73
2019-02-25T13:28:34.641Z,33.40
2019-02-25T13:31:39.557Z,35.07
2019-02-25T13:34:44.494Z,35.67
2019-02-25T13:37:49.393Z,34.43
2019-02-25T13:40:54.290Z,38.30
2019-02-25T13:43:59.193Z,37.65
2019-02-25T13:47:04.150Z,42.10
2019-02-25T13:50:17.097Z,40.33
2019-02-25T13:53:22.030Z,39.70
2019-02-25T13:56:27.169Z,35.03
2019-02-25T13:59:32.121Z,39.60
2019-02-25T14:02:37.018Z,38.37
2019-02-25T14:05:41.937Z,36.97
2019-02-25T14:08:46.887Z,39.10
2019-02-25T14:11:51.780Z,37.27
2019-02-25T14:14:56.613Z,33.93
2019-02-25T14:18:01.702Z,35.83
2019-02-25T14:21:06.642Z,33.70
2019-02-25T14:24:11.579Z,36.37
2019-02-25T14:27:16.499Z,31.63
2019-02-25T14:30:23.374Z,32.73
2019-02-25T14:33:28.317Z,33.50
2019-02-25T14:36:33.501Z,37.47
2019-02-25T14:39:40.652Z,33.42
2019-02-25T14:42:48.667Z,33.80
2019-02-25T14:45:55.731Z,31.70
2019-02-25T14:48:58.644Z,24.93
2019-02-25T14:52:03.487Z,27.00
2019-02-25T14:55:09.388Z,22.93
2019-02-25T14:58:17.230Z,22.03
2019-02-25T15:01:23.281Z,24.23
2019-02-25T15:04:30.453Z,23.30
2019-02-25T15:07:35.369Z,24.00
2019-02-25T15:10:41.235Z,26.20
2019-02-25T15:13:46.861Z,28.07
2019-02-25T15:16:51.975Z,30.57
2019-02-25T15:19:56.886Z,29.60
2019-02-25T15:23:01.802Z,26.20
2019-02-25T15:26:06.708Z,26.23
2019-02-25T15:29:12.239Z,30.40
2019-02-25T15:32:17.131Z,28.60
2019-02-25T15:35:22.193Z,31.13
2019-02-25T15:38:28.839Z,30.33
2019-02-25T15:41:33.624Z,34.50
2019-02-25T15:44:40.359Z,31.00
2019-02-25T15:47:46.900Z,30.40
2019-02-25T15:50:57.708Z,31.50
2019-02-25T15:54:01.956Z,26.63
2019-02-25T15:57:06.783Z,28.83
2019-02-25T16:00:19.108Z,25.93
2019-02-25T16:03:23.990Z,34.10
2019-02-25T16:09:40.618Z,32.10
2019-02-25T16:12:45.739Z,28.37
2019-02-25T16:15:50.977Z,28.83
2019-02-25T16:18:55.937Z,33.83
2019-02-25T16:22:02.616Z,27.50
2019-02-25T16:25:18.646Z,34.07
2019-02-25T16:28:23.588Z,37.37
2019-02-25T16:31:29.176Z,31.00
2019-02-25T16:34:36.132Z,34.20
2019-02-25T16:37:42.744Z,33.03
2019-02-25T16:40:50.233Z,29.20
2019-02-25T16:43:55.837Z,31.07
2019-02-25T16:47:01.745Z,30.23
2019-02-25T16:50:14.104Z,28.63
2019-02-25T16:53:20.214Z,33.10
2019-02-25T16:56:25.341Z,30.33
2019-02-25T16:59:30.230Z,27.83
2019-02-25T17:02:36.209Z,33.43
2019-02-25T17:05:42.822Z,26.93
2019-02-25T17:08:48.875Z,27.50
2019-02-25T17:11:54.921Z,26.57
2019-02-25T17:14:59.741Z,26.83
2019-02-25T17:18:04.754Z,25.13
2019-02-25T17:21:09.645Z,31.75
2019-02-25T17:24:14.515Z,27.43
2019-02-25T17:27:19.693Z,31.60
2019-02-25T17:30:27.050Z,26.67
2019-02-25T17:33:32.627Z,30.97
2019-02-25T17:36:38.166Z,29.43
2019-02-25T17:39:43.074Z,23.97
2019-02-25T17:42:49.433Z,23.63
2019-02-25T17:45:56.374Z,28.03
2019-02-25T17:49:01.809Z,25.67
2019-02-25T17:52:06.795Z,26.97
2019-02-25T17:55:14.066Z,23.00
2019-02-25T17:58:19.793Z,31.90
2019-02-25T18:01:27.989Z,24.27
2019-02-25T18:04:34.674Z,24.33
2019-02-25T18:07:40.013Z,24.37
2019-02-25T18:10:47.500Z,26.43
2019-02-25T18:13:53.513Z,26.50
2019-02-25T18:16:59.343Z,25.33
2019-02-25T18:20:08.606Z,25.37
2019-02-25T18:23:14.033Z,24.17
2019-02-25T18:26:18.923Z,25.17
2019-02-25T18:29:24.842Z,22.87
2019-02-25T18:32:32.800Z,27.03
2019-02-25T18:35:39.453Z,23.67
2019-02-25T18:38:46.218Z,25.73
2019-02-25T18:41:52.766Z,23.33
2019-02-25T18:44:57.373Z,32.87
2019-02-25T18:48:03.321Z,26.77
2019-02-25T18:51:08.229Z,24.80
2019-02-25T18:54:14.575Z,25.87
2019-02-25T18:57:21.034Z,26.70
2019-02-25T19:00:31.025Z,26.70
2019-02-25T19:03:35.934Z,31.60
2019-02-25T19:06:41.877Z,27.20
2019-02-25T19:09:49.370Z,23.67
2019-02-25T19:12:56.373Z,32.90
2019-02-25T19:16:01.656Z,24.73
2019-02-25T19:19:07.959Z,30.17
2019-02-25T19:22:13.640Z,29.57
2019-02-25T19:25:20.879Z,24.17
2019-02-25T19:28:27.769Z,27.43
2019-02-25T19:31:32.757Z,26.40
2019-02-25T19:34:39.750Z,29.10
2019-02-25T19:37:46.653Z,30.63
2019-02-25T19:40:53.123Z,26.57
2019-02-25T19:43:59.385Z,26.43
2019-02-25T19:47:04.484Z,28.90
2019-02-25T19:50:11.910Z,32.05
2019-02-25T19:53:19.419Z,26.60
2019-02-25T19:56:23.397Z,23.17
2019-02-25T19:59:30.476Z,26.55
2019-02-25T20:02:36.528Z,25.33
2019-02-25T20:05:44.201Z,25.25
2019-02-25T20:08:50.902Z,28.77
2019-02-25T20:11:57.278Z,27.43
2019-02-25T20:15:02.046Z,25.27
2019-02-25T20:18:09.342Z,24.05
2019-02-25T20:21:14.249Z,26.00
2019-02-25T20:24:21.169Z,29.40
2019-02-25T20:27:25.746Z,32.50
2019-02-25T20:30:30.923Z,24.77
2019-02-25T20:33:37.517Z,27.62
2019-02-25T20:36:42.818Z,28.80
2019-02-25T20:39:47.733Z,25.77
2019-02-25T20:42:53.578Z,27.03
2019-02-25T20:46:01.509Z,28.90
2019-02-25T20:49:05.953Z,34.13
2019-02-25T20:52:11.769Z,26.03
2019-02-25T20:55:17.489Z,27.77
2019-02-25T20:58:23.244Z,28.17
2019-02-25T21:01:28.147Z,29.57
2019-02-25T21:04:40.917Z,27.85
2019-02-25T21:07:45.903Z,24.73
2019-02-25T21:10:50.877Z,28.43
2019-02-25T21:13:55.821Z,25.30
2019-02-25T21:17:03.012Z,25.23
2019-02-25T21:20:10.625Z,27.17
2019-02-25T21:23:15.489Z,25.70
2019-02-25T21:26:20.321Z,29.13
2019-02-25T21:29:27.108Z,26.05
2019-02-25T21:32:32.895Z,28.03
2019-02-25T21:35:39.611Z,26.83
2019-02-25T21:38:45.380Z,26.37
2019-02-25T21:41:51.084Z,27.10
2019-02-25T21:44:57.028Z,28.05
2019-02-25T21:48:04.963Z,26.48
2019-02-25T21:51:11.886Z,26.80
2019-02-25T21:54:16.698Z,29.80
2019-02-25T21:57:21.585Z,26.50
2019-02-25T22:00:27.522Z,26.67
2019-02-25T22:03:37.057Z,26.93
2019-02-25T22:06:39.814Z,27.23
2019-02-25T22:09:45.919Z,26.37
2019-02-25T22:12:51.032Z,29.53
2019-02-25T22:15:57.408Z,29.72
2019-02-25T22:19:02.533Z,25.23
2019-02-25T22:22:07.405Z,32.07
2019-02-25T22:25:23.006Z,28.53
2019-02-25T22:28:28.814Z,28.27
2019-02-25T22:31:35.431Z,29.07
2019-02-25T22:34:40.994Z,27.77
2019-02-25T22:37:49.277Z,33.07
2019-02-25T22:40:53.601Z,28.23
2019-02-25T22:43:59.871Z,28.03
2019-02-25T22:47:09.233Z,32.07
2019-02-25T22:50:15.129Z,28.20
2019-02-25T22:53:19.810Z,28.87
2019-02-25T22:56:27.928Z,30.10
2019-02-25T22:59:35.028Z,31.50
2019-02-25T23:02:40.991Z,31.03
2019-02-25T23:05:46.006Z,26.30
2019-02-25T23:08:51.577Z,30.67
2019-02-25T23:11:57.532Z,29.57
2019-02-25T23:15:03.856Z,32.77
2019-02-25T23:18:11.992Z,30.67
2019-02-25T23:21:23.411Z,29.80
2019-02-25T23:24:26.009Z,29.23
2019-02-25T23:27:32.144Z,30.97
2019-02-25T23:30:39.119Z,31.80
2019-02-25T23:33:44.375Z,42.30
2019-02-25T23:36:51.638Z,32.00
2019-02-25T23:40:00.099Z,31.00
2019-02-25T23:43:05.291Z,29.80
2019-02-25T23:46:09.863Z,28.13
2019-02-25T23:49:14.770Z,30.97
2019-02-25T23:52:19.601Z,32.00
2019-02-25T23:55:27.043Z,32.67
2019-02-25T23:58:31.070Z,33.80
